createdAt,value
2018-09-16T00:00:12.958Z,10.18
2018-09-16T00:02:42.105Z,10.40
2018-09-16T00:05:11.374Z,10.32
2018-09-16T00:07:40.511Z,10.23
2018-09-16T00:10:09.632Z,10.05
2018-09-16T00:12:38.769Z,10.00
2018-09-16T00:15:08.259Z,10.10
2018-09-16T00:17:37.383Z,10.10
2018-09-16T00:20:07.238Z,10.09
2018-09-16T00:22:36.358Z,9.91
2018-09-16T00:25:05.538Z,9.77
2018-09-16T00:27:34.648Z,9.77
2018-09-16T00:30:03.789Z,9.84
2018-09-16T00:32:38.265Z,9.97
2018-09-16T00:35:07.454Z,9.92
2018-09-16T00:37:36.633Z,9.81
2018-09-16T00:40:06.550Z,9.68
2018-09-16T00:42:35.718Z,9.68
2018-09-16T00:45:05.269Z,9.74
2018-09-16T00:47:34.562Z,9.57
2018-09-16T00:50:03.842Z,9.50
2018-09-16T00:52:33.202Z,9.46
2018-09-16T00:55:02.405Z,9.41
2018-09-16T00:57:31.669Z,9.39
2018-09-16T01:00:01.089Z,9.62
2018-09-16T01:02:31.845Z,9.63
2018-09-16T01:05:00.965Z,9.56
2018-09-16T01:07:30.822Z,9.56
2018-09-16T01:09:59.929Z,9.51
2018-09-16T01:12:29.067Z,9.48
2018-09-16T01:14:58.961Z,9.42
2018-09-16T01:17:28.072Z,9.33
2018-09-16T01:19:57.234Z,9.24
2018-09-16T01:22:26.429Z,9.33
2018-09-16T01:24:56.030Z,9.13
2018-09-16T01:27:25.193Z,9.09
2018-09-16T01:29:54.295Z,9.05
2018-09-16T01:32:23.562Z,9.03
2018-09-16T01:34:54.558Z,8.98
2018-09-16T01:37:28.946Z,9.09
2018-09-16T01:39:58.097Z,9.06
2018-09-16T01:42:27.253Z,9.03
2018-09-16T01:44:56.977Z,8.89
2018-09-16T01:47:26.131Z,8.82
2018-09-16T01:49:56.114Z,9.10
2018-09-16T01:52:25.241Z,9.16
2018-09-16T01:54:54.357Z,9.00
2018-09-16T01:57:23.482Z,8.81
2018-09-16T01:59:52.606Z,8.86
2018-09-16T02:02:22.242Z,8.83
2018-09-16T02:04:52.128Z,8.71
2018-09-16T02:07:21.317Z,8.57
2018-09-16T02:09:50.467Z,8.50
2018-09-16T02:12:19.589Z,8.38
2018-09-16T02:14:48.730Z,8.38
2018-09-16T02:17:18.809Z,8.38
2018-09-16T02:19:48.572Z,8.35
2018-09-16T02:22:17.654Z,8.43
2018-09-16T02:24:46.817Z,8.43
2018-09-16T02:27:16.433Z,8.42
2018-09-16T02:29:45.539Z,8.38
2018-09-16T02:32:15.553Z,8.37
2018-09-16T02:34:46.865Z,8.44
2018-09-16T02:37:15.993Z,8.44
2018-09-16T02:39:45.102Z,8.39
2018-09-16T02:42:14.198Z,8.41
2018-09-16T02:44:43.561Z,8.37
2018-09-16T02:47:12.649Z,8.28
2018-09-16T02:49:42.470Z,8.33
2018-09-16T02:52:11.705Z,8.28
2018-09-16T02:54:42.153Z,8.32
2018-09-16T02:57:11.338Z,8.34
2018-09-16T02:59:47.073Z,8.23
2018-09-16T03:02:16.283Z,8.18
2018-09-16T03:04:46.619Z,8.07
2018-09-16T03:07:15.552Z,8.00
2018-09-16T03:09:44.662Z,7.88
2018-09-16T03:12:13.830Z,7.84
2018-09-16T03:14:43.361Z,7.84
2018-09-16T03:17:13.332Z,7.80
2018-09-16T03:19:42.769Z,7.92
2018-09-16T03:22:11.994Z,7.94
2018-09-16T03:24:41.350Z,7.91
2018-09-16T03:27:10.478Z,7.84
2018-09-16T03:29:39.769Z,7.90
2018-09-16T03:32:09.475Z,7.91
2018-09-16T03:34:38.557Z,7.83
2018-09-16T03:37:07.706Z,7.78
2018-09-16T03:39:36.833Z,7.78
2018-09-16T03:42:05.951Z,7.69
2018-09-16T03:44:35.857Z,7.75
2018-09-16T03:47:05.417Z,7.84
2018-09-16T03:49:34.929Z,7.81
2018-09-16T03:52:04.065Z,7.90
2018-09-16T03:54:33.193Z,7.90
2018-09-16T03:57:02.298Z,7.90
2018-09-16T03:59:31.409Z,7.80
2018-09-16T04:02:00.519Z,7.72
2018-09-16T04:04:29.653Z,7.66
2018-09-16T04:06:58.809Z,7.68
2018-09-16T04:09:27.918Z,7.59
2018-09-16T04:11:57.375Z,7.75
2018-09-16T04:14:26.939Z,7.75
2018-09-16T04:16:56.108Z,7.64
2018-09-16T04:19:25.241Z,7.58
2018-09-16T04:21:54.342Z,7.57
2018-09-16T04:24:23.596Z,7.64
2018-09-16T04:26:52.746Z,7.70
2018-09-16T04:29:21.860Z,7.67
2018-09-16T04:31:51.118Z,7.59
2018-09-16T04:34:20.264Z,7.62
2018-09-16T04:36:49.446Z,7.54
2018-09-16T04:39:18.580Z,7.46
2018-09-16T04:41:47.820Z,7.44
2018-09-16T04:44:16.926Z,7.45
2018-09-16T04:46:46.025Z,7.45
2018-09-16T04:49:14.841Z,7.38
2018-09-16T04:51:44.425Z,7.52
2018-09-16T04:54:13.541Z,7.59
2018-09-16T04:56:42.698Z,7.59
2018-09-16T04:59:11.806Z,7.55
2018-09-16T05:01:40.894Z,7.51
2018-09-16T05:04:10.042Z,7.42
2018-09-16T05:06:39.158Z,7.32
2018-09-16T05:09:10.169Z,7.36
2018-09-16T05:11:39.308Z,7.40
2018-09-16T05:14:08.436Z,7.47
2018-09-16T05:16:37.925Z,7.47
2018-09-16T05:19:07.013Z,7.46
2018-09-16T05:21:36.131Z,7.41
2018-09-16T05:24:05.242Z,7.50
2018-09-16T05:26:35.062Z,7.53
2018-09-16T05:29:04.182Z,7.55
2018-09-16T05:31:33.406Z,7.59
2018-09-16T05:34:02.470Z,7.59
2018-09-16T05:36:31.685Z,7.67
2018-09-16T05:39:00.866Z,7.84
2018-09-16T05:41:29.959Z,7.94
2018-09-16T05:43:59.508Z,8.03
2018-09-16T05:46:28.664Z,8.05
2018-09-16T05:48:57.785Z,8.10
2018-09-16T05:51:26.904Z,8.12
2018-09-16T05:53:56.805Z,8.14
2018-09-16T05:56:26.645Z,8.16
2018-09-16T05:58:56.533Z,8.31
2018-09-16T06:01:25.645Z,8.69
2018-09-16T06:03:55.614Z,9.65
2018-09-16T06:06:24.728Z,10.59
2018-09-16T06:08:53.837Z,10.97
2018-09-16T06:11:22.514Z,11.34
2018-09-16T06:13:52.061Z,12.24
2018-09-16T06:16:21.175Z,12.44
2018-09-16T06:18:51.737Z,13.08
2018-09-16T06:21:20.886Z,13.67
2018-09-16T06:23:50.188Z,13.96
2018-09-16T06:26:19.330Z,14.53
2018-09-16T06:28:48.457Z,14.93
2018-09-16T06:31:17.559Z,15.24
2018-09-16T06:33:46.782Z,15.55
2018-09-16T06:36:16.422Z,15.17
2018-09-16T06:38:45.556Z,15.25
2018-09-16T06:41:14.735Z,15.47
2018-09-16T06:43:43.830Z,15.74
2018-09-16T06:46:12.969Z,16.19
2018-09-16T06:48:42.096Z,16.54
2018-09-16T06:51:11.928Z,17.07
2018-09-16T06:53:41.071Z,17.90
2018-09-16T06:56:10.165Z,18.64
2018-09-16T06:58:40.024Z,19.28
2018-09-16T07:01:09.254Z,19.33
2018-09-16T07:03:40.049Z,19.55
2018-09-16T07:06:09.337Z,20.05
2018-09-16T07:08:38.462Z,20.70
2018-09-16T07:11:07.888Z,19.64
2018-09-16T07:13:37.013Z,20.69
2018-09-16T07:16:06.138Z,21.13
2018-09-16T07:18:35.282Z,21.02
2018-09-16T07:21:04.840Z,20.25
2018-09-16T07:23:34.009Z,19.72
2018-09-16T07:26:03.102Z,20.23
2018-09-16T07:28:32.446Z,20.97
2018-09-16T07:31:02.342Z,22.09
2018-09-16T07:33:31.577Z,22.45
2018-09-16T07:36:01.169Z,22.55
2018-09-16T07:38:30.269Z,23.65
2018-09-16T07:40:59.414Z,23.89
2018-09-16T07:43:28.529Z,24.08
2018-09-16T07:45:58.212Z,24.87
2018-09-16T07:48:28.070Z,24.64
2018-09-16T07:50:58.401Z,25.33
2018-09-16T07:53:27.522Z,26.07
2018-09-16T07:55:56.666Z,27.07
2018-09-16T07:58:26.126Z,26.90
2018-09-16T08:00:55.798Z,27.30
2018-09-16T08:03:24.894Z,27.28
2018-09-16T08:05:54.057Z,27.37
2018-09-16T08:08:23.145Z,27.17
2018-09-16T08:10:52.985Z,28.15
2018-09-16T08:13:22.826Z,28.47
2018-09-16T08:15:51.582Z,28.58
2018-09-16T08:18:20.681Z,29.44
2018-09-16T08:20:49.820Z,30.49
2018-09-16T08:23:18.949Z,30.53
2018-09-16T08:25:48.107Z,30.84
2018-09-16T08:28:17.535Z,31.45
2018-09-16T08:30:46.681Z,31.46
2018-09-16T08:33:15.786Z,31.51
2018-09-16T08:35:45.657Z,31.01
2018-09-16T08:38:14.750Z,30.25
2018-09-16T08:40:43.857Z,30.75
2018-09-16T08:43:12.978Z,31.59
2018-09-16T08:45:42.169Z,30.50
2018-09-16T08:48:11.330Z,31.56
2018-09-16T08:50:40.476Z,32.58
2018-09-16T08:53:09.569Z,32.21
2018-09-16T08:55:38.709Z,28.71
2018-09-16T08:58:07.934Z,28.78
2018-09-16T09:00:36.941Z,29.02
2018-09-16T09:03:06.449Z,28.24
2018-09-16T09:05:36.109Z,27.84
2018-09-16T09:08:05.201Z,25.71
2018-09-16T09:10:34.678Z,26.13
2018-09-16T09:13:03.845Z,26.32
2018-09-16T09:15:32.918Z,25.31
2018-09-16T09:18:02.027Z,25.18
2018-09-16T09:20:31.186Z,24.78
2018-09-16T09:23:00.357Z,24.89
2018-09-16T09:25:30.226Z,25.19
2018-09-16T09:27:59.394Z,24.95
2018-09-16T09:30:30.010Z,24.24
2018-09-16T09:32:59.185Z,23.70
2018-09-16T09:35:28.369Z,23.30
2018-09-16T09:37:58.172Z,22.58
2018-09-16T09:40:27.275Z,22.39
2018-09-16T09:42:56.452Z,22.59
2018-09-16T09:45:26.081Z,22.30
2018-09-16T09:47:55.204Z,22.27
2018-09-16T09:50:24.318Z,22.40
2018-09-16T09:52:53.529Z,22.24
2018-09-16T09:55:22.671Z,21.80
2018-09-16T09:57:51.753Z,21.61
2018-09-16T10:00:26.063Z,21.77
2018-09-16T10:02:55.159Z,26.11
2018-09-16T10:05:24.293Z,30.17
2018-09-16T10:07:53.630Z,33.14
2018-09-16T10:10:23.242Z,33.96
2018-09-16T10:12:52.329Z,34.58
2018-09-16T10:15:21.454Z,34.73
2018-09-16T10:17:50.761Z,35.94
2018-09-16T10:20:19.894Z,35.82
2018-09-16T10:22:55.357Z,35.64
2018-09-16T10:25:24.454Z,35.67
2018-09-16T10:27:53.879Z,37.08
2018-09-16T10:30:23.189Z,36.10
2018-09-16T10:32:52.281Z,35.22
2018-09-16T10:35:21.377Z,35.46
2018-09-16T10:37:50.495Z,35.01
2018-09-16T10:40:19.598Z,35.40
2018-09-16T10:42:48.681Z,35.25
2018-09-16T10:45:17.793Z,34.08
2018-09-16T10:47:46.898Z,33.42
2018-09-16T10:50:15.992Z,34.92
2018-09-16T10:52:45.281Z,36.48
2018-09-16T10:55:14.413Z,35.75
2018-09-16T10:57:43.686Z,34.75
2018-09-16T11:00:12.840Z,36.93
2018-09-16T11:02:41.965Z,35.79
2018-09-16T11:05:11.135Z,34.51
2018-09-16T11:07:40.605Z,34.15
2018-09-16T11:10:09.701Z,35.72
2018-09-16T11:12:38.797Z,37.37
2018-09-16T11:15:07.948Z,39.70
2018-09-16T11:17:37.499Z,36.61
2018-09-16T11:20:07.153Z,33.50
2018-09-16T11:22:36.262Z,32.12
2018-09-16T11:25:06.177Z,30.64
2018-09-16T11:27:35.325Z,34.27
2018-09-16T11:30:04.550Z,35.05
2018-09-16T11:32:33.558Z,37.99
2018-09-16T11:35:02.692Z,37.64
2018-09-16T11:37:32.062Z,39.32
2018-09-16T11:40:01.188Z,39.74
2018-09-16T11:42:30.362Z,38.43
2018-09-16T11:44:59.470Z,40.07
2018-09-16T11:47:28.568Z,40.35
2018-09-16T11:49:57.713Z,40.50
2018-09-16T11:52:27.094Z,39.74
2018-09-16T11:54:56.271Z,37.52
2018-09-16T11:57:25.398Z,39.45
2018-09-16T11:59:55.045Z,37.21
2018-09-16T12:02:24.205Z,36.71
2018-09-16T12:04:53.298Z,38.48
2018-09-16T12:07:23.068Z,39.83
2018-09-16T12:09:52.223Z,38.41
2018-09-16T12:12:21.329Z,39.97
2018-09-16T12:14:50.454Z,41.57
2018-09-16T12:17:19.558Z,43.01
2018-09-16T12:19:48.647Z,42.81
2018-09-16T12:22:18.364Z,43.49
2018-09-16T12:24:47.470Z,42.36
2018-09-16T12:27:16.585Z,41.56
2018-09-16T12:29:46.052Z,38.24
2018-09-16T12:32:15.162Z,37.15
2018-09-16T12:34:44.417Z,37.82
2018-09-16T12:37:13.565Z,36.46
2018-09-16T12:39:43.006Z,36.54
2018-09-16T12:42:12.157Z,35.36
2018-09-16T12:44:41.270Z,32.40
2018-09-16T12:47:10.369Z,30.66
2018-09-16T12:49:39.493Z,29.02
2018-09-16T12:52:09.281Z,27.67
2018-09-16T12:54:38.412Z,26.72
2018-09-16T12:57:07.623Z,26.60
2018-09-16T12:59:36.680Z,27.34
2018-09-16T13:02:05.757Z,27.77
2018-09-16T13:04:35.655Z,28.24
2018-09-16T13:07:05.580Z,28.28
2018-09-16T13:09:34.770Z,28.13
2018-09-16T13:12:03.518Z,29.91
2018-09-16T13:14:32.627Z,33.61
2018-09-16T13:17:01.826Z,35.78
2018-09-16T13:19:30.945Z,38.03
2018-09-16T13:22:00.057Z,38.48
2018-09-16T13:24:29.185Z,38.26
2018-09-16T13:26:59.070Z,37.12
2018-09-16T13:29:28.174Z,36.46
2018-09-16T13:31:57.277Z,35.93
2018-09-16T13:34:26.377Z,35.83
2018-09-16T13:36:55.497Z,36.87
2018-09-16T13:39:24.606Z,36.55
2018-09-16T13:41:53.729Z,38.05
2018-09-16T13:44:22.837Z,38.51
2018-09-16T13:46:51.521Z,38.22
2018-09-16T13:49:20.630Z,38.53
2018-09-16T13:51:49.990Z,36.48
2018-09-16T13:54:19.150Z,37.18
2018-09-16T13:56:48.237Z,37.23
2018-09-16T13:59:17.406Z,36.33
2018-09-16T14:01:46.521Z,36.96
2018-09-16T14:04:15.965Z,37.97
2018-09-16T14:06:45.061Z,38.38
2018-09-16T14:09:14.398Z,36.83
2018-09-16T14:11:43.587Z,37.88
2018-09-16T14:14:12.914Z,36.80
2018-09-16T14:16:42.573Z,35.61
2018-09-16T14:19:11.669Z,33.73
2018-09-16T14:21:41.437Z,31.16
2018-09-16T14:24:10.565Z,29.32
2018-09-16T14:26:39.658Z,28.73
2018-09-16T14:29:08.834Z,28.45
2018-09-16T14:31:37.938Z,28.22
2018-09-16T14:34:07.077Z,27.85
2018-09-16T14:36:36.173Z,28.18
2018-09-16T14:39:06.840Z,28.43
2018-09-16T14:41:36.201Z,28.07
2018-09-16T14:44:05.669Z,28.24
2018-09-16T14:46:34.781Z,28.16
2018-09-16T14:49:03.871Z,28.24
2018-09-16T14:51:33.014Z,28.80
2018-09-16T14:54:02.058Z,29.76
2018-09-16T14:56:31.153Z,30.65
2018-09-16T14:59:00.255Z,30.31
2018-09-16T15:01:29.358Z,30.08
2018-09-16T15:03:58.492Z,29.72
2018-09-16T15:06:27.653Z,29.55
2018-09-16T15:08:56.814Z,28.42
2018-09-16T15:11:25.941Z,27.52
2018-09-16T15:13:55.213Z,27.09
2018-09-16T15:16:24.351Z,27.10
2018-09-16T15:18:53.478Z,26.77
2018-09-16T15:21:22.618Z,26.49
2018-09-16T15:23:51.764Z,26.11
2018-09-16T15:26:20.829Z,26.26
2018-09-16T15:28:49.931Z,26.51
2018-09-16T15:31:19.030Z,26.37
2018-09-16T15:33:48.117Z,26.46
2018-09-16T15:36:17.318Z,26.09
2018-09-16T15:38:46.193Z,26.16
2018-09-16T15:41:15.590Z,26.34
2018-09-16T15:43:45.298Z,26.32
2018-09-16T15:46:14.436Z,26.23
2018-09-16T15:48:43.567Z,26.34
2018-09-16T15:51:12.703Z,26.62
2018-09-16T15:53:42.074Z,26.94
2018-09-16T15:56:11.659Z,27.09
2018-09-16T15:58:40.751Z,27.18
2018-09-16T16:01:09.838Z,27.10
2018-09-16T16:03:38.972Z,27.05
2018-09-16T16:06:08.067Z,27.03
2018-09-16T16:08:37.694Z,27.05
2018-09-16T16:11:06.825Z,27.00
2018-09-16T16:13:35.989Z,26.81
2018-09-16T16:16:05.227Z,26.82
2018-09-16T16:18:34.326Z,26.43
2018-09-16T16:21:03.657Z,26.08
2018-09-16T16:23:33.218Z,25.93
2018-09-16T16:26:02.450Z,25.83
2018-09-16T16:28:31.158Z,25.71
2018-09-16T16:31:00.330Z,25.63
2018-09-16T16:33:29.420Z,25.50
2018-09-16T16:35:58.757Z,25.36
2018-09-16T16:38:27.915Z,25.24
2018-09-16T16:40:57.290Z,25.05
2018-09-16T16:43:26.385Z,24.92
2018-09-16T16:45:55.940Z,24.81
2018-09-16T16:48:25.037Z,24.71
2018-09-16T16:50:54.213Z,24.56
2018-09-16T16:53:23.309Z,24.39
2018-09-16T16:55:52.425Z,24.27
2018-09-16T16:58:21.535Z,24.16
2018-09-16T17:00:50.729Z,23.96
2018-09-16T17:03:19.890Z,23.78
2018-09-16T17:05:49.029Z,23.54
2018-09-16T17:08:18.155Z,23.51
2018-09-16T17:10:47.258Z,23.46
2018-09-16T17:13:16.465Z,23.30
2018-09-16T17:15:45.669Z,23.14
2018-09-16T17:18:14.769Z,22.92
2018-09-16T17:20:43.899Z,22.72
2018-09-16T17:23:13.125Z,22.50
2018-09-16T17:25:42.580Z,22.36
2018-09-16T17:28:12.177Z,22.20
2018-09-16T17:30:41.789Z,21.95
2018-09-16T17:33:10.933Z,21.74
2018-09-16T17:35:40.881Z,21.50
2018-09-16T17:38:10.115Z,21.32
2018-09-16T17:40:39.361Z,21.11
2018-09-16T17:43:08.602Z,20.94
2018-09-16T17:45:37.937Z,20.83
2018-09-16T17:48:07.138Z,20.69
2018-09-16T17:50:36.477Z,20.52
2018-09-16T17:53:05.881Z,20.44
2018-09-16T17:55:35.386Z,20.35
2018-09-16T17:58:04.713Z,20.29
2018-09-16T18:00:34.053Z,20.17
2018-09-16T18:03:03.347Z,20.19
2018-09-16T18:05:32.967Z,20.26
2018-09-16T18:08:03.505Z,20.12
2018-09-16T18:10:34.274Z,19.84
2018-09-16T18:13:04.014Z,19.75
2018-09-16T18:15:33.162Z,19.59
2018-09-16T18:18:02.280Z,19.41
2018-09-16T18:20:31.385Z,19.35
2018-09-16T18:23:00.658Z,19.38
2018-09-16T18:25:30.589Z,19.39
2018-09-16T18:28:00.438Z,19.32
2018-09-16T18:30:30.357Z,19.23
2018-09-16T18:33:00.353Z,19.14
2018-09-16T18:35:29.622Z,19.03
2018-09-16T18:37:58.965Z,18.94
2018-09-16T18:40:28.309Z,18.82
2018-09-16T18:42:57.502Z,18.69
2018-09-16T18:45:26.601Z,18.73
2018-09-16T18:47:55.742Z,18.79
2018-09-16T18:50:24.897Z,18.74
2018-09-16T18:52:54.209Z,18.78
2018-09-16T18:55:23.427Z,18.84
2018-09-16T18:57:52.571Z,18.72
2018-09-16T19:00:21.759Z,18.54
2018-09-16T19:02:51.564Z,18.42
2018-09-16T19:05:21.053Z,18.21
2018-09-16T19:07:50.708Z,18.00
2018-09-16T19:10:20.673Z,18.04
2018-09-16T19:12:50.231Z,17.91
2018-09-16T19:15:20.202Z,17.71
2018-09-16T19:17:49.638Z,17.64
2018-09-16T19:20:19.855Z,17.58
2018-09-16T19:22:49.242Z,17.75
2018-09-16T19:25:18.769Z,17.79
2018-09-16T19:27:48.653Z,17.70
2018-09-16T19:30:17.893Z,17.60
2018-09-16T19:32:47.398Z,17.57
2018-09-16T19:35:16.762Z,17.49
2018-09-16T19:37:47.462Z,17.39
2018-09-16T19:40:17.426Z,17.32
2018-09-16T19:42:47.541Z,17.33
2018-09-16T19:45:17.219Z,17.36
2018-09-16T19:47:47.293Z,17.30
2018-09-16T19:50:17.124Z,17.47
2018-09-16T19:52:47.289Z,17.59
2018-09-16T19:55:17.105Z,17.45
2018-09-16T19:57:46.518Z,17.32
2018-09-16T20:00:15.704Z,17.25
2018-09-16T20:02:45.130Z,17.24
2018-09-16T20:05:14.235Z,17.14
2018-09-16T20:07:43.365Z,17.11
2018-09-16T20:10:13.298Z,17.06
2018-09-16T20:12:42.435Z,17.07
2018-09-16T20:15:11.538Z,17.31
2018-09-16T20:17:40.953Z,17.23
2018-09-16T20:20:10.046Z,17.12
2018-09-16T20:22:39.982Z,16.88
2018-09-16T20:25:09.170Z,16.64
2018-09-16T20:27:38.396Z,16.56
2018-09-16T20:30:07.528Z,16.54
2018-09-16T20:32:36.677Z,16.38
2018-09-16T20:35:06.038Z,16.19
2018-09-16T20:37:35.185Z,16.22
2018-09-16T20:40:04.353Z,16.28
2018-09-16T20:42:33.469Z,16.26
2018-09-16T20:45:02.596Z,16.13
2018-09-16T20:47:31.753Z,16.05
2018-09-16T20:50:00.865Z,16.14
2018-09-16T20:52:30.093Z,16.23
2018-09-16T20:54:59.233Z,16.14
2018-09-16T20:57:28.366Z,16.11
2018-09-16T20:59:57.514Z,15.93
2018-09-16T21:02:26.625Z,15.80
2018-09-16T21:04:55.791Z,15.72
2018-09-16T21:07:25.289Z,15.78
2018-09-16T21:09:54.465Z,15.84
2018-09-16T21:12:23.557Z,15.80
2018-09-16T21:14:52.688Z,15.66
2018-09-16T21:17:22.571Z,15.62
2018-09-16T21:19:52.069Z,15.74
2018-09-16T21:22:21.330Z,15.62
2018-09-16T21:24:50.606Z,15.40
2018-09-16T21:27:20.058Z,15.26
2018-09-16T21:29:49.301Z,15.14
2018-09-16T21:32:18.252Z,15.07
2018-09-16T21:34:47.447Z,15.03
2018-09-16T21:37:16.608Z,14.96
2018-09-16T21:39:45.819Z,14.94
2018-09-16T21:42:15.090Z,14.91
2018-09-16T21:44:44.810Z,14.90
2018-09-16T21:47:13.910Z,14.81
2018-09-16T21:49:43.099Z,14.90
2018-09-16T21:52:12.398Z,14.89
2018-09-16T21:54:42.045Z,15.01
2018-09-16T21:57:11.042Z,14.92
2018-09-16T21:59:40.263Z,14.74
2018-09-16T22:02:09.466Z,14.63
2018-09-16T22:04:38.663Z,14.56
2018-09-16T22:07:07.814Z,14.49
2018-09-16T22:09:37.689Z,14.40
2018-09-16T22:12:12.734Z,14.38
2018-09-16T22:14:41.865Z,14.39
2018-09-16T22:17:10.998Z,14.32
2018-09-16T22:19:40.191Z,14.25
2018-09-16T22:22:09.369Z,14.19
2018-09-16T22:24:38.602Z,14.18
2018-09-16T22:27:07.981Z,13.93
2018-09-16T22:29:37.217Z,13.71
2018-09-16T22:32:06.511Z,13.73
2018-09-16T22:34:36.090Z,13.85
2018-09-16T22:37:05.230Z,13.75
2018-09-16T22:39:34.357Z,13.62
2018-09-16T22:42:04.341Z,13.58
2018-09-16T22:44:33.465Z,13.53
2018-09-16T22:47:02.604Z,13.76
2018-09-16T22:49:31.757Z,13.66
2018-09-16T22:52:01.436Z,13.49
2018-09-16T22:54:30.537Z,13.37
2018-09-16T22:56:59.695Z,13.33
2018-09-16T22:59:28.806Z,13.26
2018-09-16T23:01:57.938Z,13.33
2018-09-16T23:04:27.037Z,13.33
2018-09-16T23:06:56.161Z,13.35
2018-09-16T23:09:25.400Z,13.19
2018-09-16T23:11:54.570Z,13.12
2018-09-16T23:14:23.710Z,13.04
2018-09-16T23:16:52.913Z,13.13
2018-09-16T23:19:22.302Z,13.22
2018-09-16T23:21:51.438Z,13.11
2018-09-16T23:24:20.551Z,13.04
2018-09-16T23:26:49.670Z,12.87
2018-09-16T23:29:18.793Z,12.92
2018-09-16T23:31:47.959Z,13.21
2018-09-16T23:34:17.199Z,13.67
2018-09-16T23:36:46.462Z,13.52
2018-09-16T23:39:15.965Z,13.25
2018-09-16T23:41:45.829Z,13.16
2018-09-16T23:44:15.813Z,13.13
2018-09-16T23:46:45.306Z,13.08
2018-09-16T23:49:14.451Z,12.98
2018-09-16T23:51:43.655Z,12.96
2018-09-16T23:54:12.827Z,12.93
2018-09-16T23:56:41.934Z,13.03
2018-09-16T23:59:11.254Z,13.03
